aviador You're here:

YBUD Decoded Metar

in
Report Time2018-06-18 15:00:00
UTC Time2018-06-18 15:31:25
Flight Rules vfr VFR
Wind230° at 07 kt
W.Decomp.*RWY 25: 6.6 kt HW 2.4 kt LCW
RWY 14: 7.0 kt RCW
W.Rank230° ranks 16
Current wind is above 230° avg. (6.3)
Visibility9999 m
Phenomena:N/A
Clouds:N/A
Expected CloudBase > 3,200 ft AGL from Temp-Dew spread
CeilingNone
Temp10°C
Dew Point02°C (58% RH)
AAT5.8°C
QNH1020 hPa
Raw Report
METAR YBUD 181500Z AUTO 23007KT 9999 // NCD 10/02 Q1020=

Extra information for YBUD:More info

Social comments